Time;durP1;ratioP1;P1;durP2;ratioP2;P2;SDS_P1;SDS_P2;PMS_P1;PMS_P2;Temp;Humidity;BMP_temperature;BMP_pressure;BME280_temperature;BME280_humidity;BME280_pressure;Samples;Min_cycle;Max_cycle;Signal;HPM_P1;HPM_P2
2023/12/23 00:00:58;;;;;;;2.53;1.10;;;7.70;23.40;;;;;;5117226;28;20207;-44
2023/12/23 00:03:24;;;;;;;2.50;1.20;;;7.80;48.30;;;;;;5116017;28;20211;-44
2023/12/23 00:05:49;;;;;;;3.93;1.50;;;7.70;99.90;;;;;;5117226;28;20638;-42
2023/12/23 00:08:15;;;;;;;6.40;1.80;;;7.70;99.90;;;;;;5114940;28;20239;-43
2023/12/23 00:10:41;;;;;;;2.33;1.23;;;7.60;99.90;;;;;;5116432;28;20227;-43
2023/12/23 00:13:06;;;;;;;3.73;1.30;;;7.60;99.90;;;;;;5116344;28;20214;-47
2023/12/23 00:15:32;;;;;;;3.50;1.30;;;7.60;99.90;;;;;;5116579;28;20815;-43
2023/12/23 00:17:57;;;;;;;3.00;1.30;;;7.50;99.90;;;;;;5117475;28;20558;-42
2023/12/23 00:20:23;;;;;;;1.83;1.17;;;7.50;99.90;;;;;;5117799;28;20272;-45
2023/12/23 00:22:50;;;;;;;2.50;1.50;;;7.50;99.90;;;;;;5116366;28;20219;-42
2023/12/23 00:25:15;;;;;;;5.77;1.70;;;7.50;99.90;;;;;;5116942;28;20191;-42
2023/12/23 00:27:41;;;;;;;3.17;1.43;;;7.50;99.90;;;;;;5118021;28;20426;-42
2023/12/23 00:30:07;;;;;;;3.17;1.60;;;7.60;99.90;;;;;;5116875;28;20206;-42
2023/12/23 00:32:32;;;;;;;4.13;1.90;;;7.60;99.90;;;;;;5117479;28;20253;-44
2023/12/23 00:34:58;;;;;;;3.90;2.10;;;7.60;99.90;;;;;;5115924;28;20434;-42
2023/12/23 00:37:24;;;;;;;5.60;2.30;;;7.60;86.50;;;;;;5116771;28;20172;-42
2023/12/23 00:39:49;;;;;;;4.33;1.50;;;7.70;99.90;;;;;;5116179;28;20527;-43
2023/12/23 00:42:15;;;;;;;3.97;1.70;;;7.60;81.90;;;;;;5117204;28;20179;-43
2023/12/23 00:44:41;;;;;;;4.17;2.43;;;7.60;99.90;;;;;;5115493;28;20295;-42
2023/12/23 00:47:07;;;;;;;5.23;2.23;;;7.60;99.90;;;;;;5117412;28;20172;-42
2023/12/23 00:49:33;;;;;;;3.97;1.40;;;7.60;99.90;;;;;;5116777;28;20480;-45
2023/12/23 00:52:00;;;;;;;2.13;1.10;;;7.60;99.90;;;;;;5116358;28;20596;-42
2023/12/23 00:54:26;;;;;;;4.93;1.40;;;7.60;99.90;;;;;;5116279;28;20203;-44
2023/12/23 00:56:51;;;;;;;6.73;1.80;;;7.50;99.90;;;;;;5116142;28;20748;-45
2023/12/23 00:59:17;;;;;;;5.70;1.53;;;7.60;99.90;;;;;;5116057;28;20235;-42
2023/12/23 01:01:43;;;;;;;4.23;1.30;;;7.60;99.90;;;;;;5115121;28;20276;-42
2023/12/23 01:04:09;;;;;;;3.07;1.13;;;7.50;99.90;;;;;;5114501;28;20306;-44
2023/12/23 01:06:34;;;;;;;2.53;1.00;;;7.50;99.90;;;;;;5115499;28;20524;-43
2023/12/23 01:09:00;;;;;;;4.17;1.10;;;7.50;99.90;;;;;;5115476;28;20547;-43
2023/12/23 01:11:25;;;;;;;5.23;1.57;;;7.50;99.90;;;;;;5116933;28;20232;-42
2023/12/23 01:13:51;;;;;;;1.93;1.10;;;7.40;99.90;;;;;;5117147;28;20190;-44
2023/12/23 01:16:16;;;;;;;4.90;1.80;;;7.40;99.90;;;;;;5116528;28;20187;-44
2023/12/23 01:18:42;;;;;;;3.20;1.30;;;7.30;99.90;;;;;;5116322;28;20191;-42
2023/12/23 01:21:08;;;;;;;6.37;1.33;;;7.30;99.90;;;;;;5116796;28;20197;-43
2023/12/23 01:23:33;;;;;;;3.30;1.30;;;7.20;99.90;;;;;;5116725;28;20456;-45
2023/12/23 01:25:59;;;;;;;1.70;1.20;;;7.20;1.00;;;;;;5114247;28;20180;-43
2023/12/23 01:28:24;;;;;;;5.10;1.50;;;7.20;1.00;;;;;;5115267;28;20182;-45
2023/12/23 01:30:50;;;;;;;5.97;1.80;;;7.20;1.00;;;;;;5116126;28;20180;-44
2023/12/23 01:33:15;;;;;;;3.27;1.70;;;7.20;1.00;;;;;;5114737;28;20411;-46
2023/12/23 01:35:41;;;;;;;3.20;1.47;;;7.20;1.00;;;;;;5116114;28;20182;-47
2023/12/23 01:38:06;;;;;;;3.40;1.83;;;7.20;1.00;;;;;;5116328;28;20187;-43
2023/12/23 01:40:32;;;;;;;5.53;1.43;;;7.20;99.90;;;;;;5115439;28;20204;-42
2023/12/23 01:42:58;;;;;;;1.97;1.33;;;7.20;1.00;;;;;;5116074;28;20212;-43
2023/12/23 01:45:23;;;;;;;3.23;1.57;;;7.20;99.90;;;;;;5116407;28;20180;-45
2023/12/23 01:47:50;;;;;;;5.13;2.00;;;7.20;99.90;;;;;;5116556;28;20168;-44
2023/12/23 01:50:17;;;;;;;2.70;1.27;;;7.30;99.90;;;;;;5116747;28;20280;-42
2023/12/23 01:52:44;;;;;;;2.97;1.80;;;7.30;99.90;;;;;;5117023;28;20445;-42
2023/12/23 01:55:09;;;;;;;3.40;1.50;;;7.30;99.90;;;;;;5115777;28;20426;-45
2023/12/23 01:57:36;;;;;;;7.40;2.07;;;7.40;99.90;;;;;;5116520;28;20445;-45
2023/12/23 02:00:03;;;;;;;4.63;1.80;;;7.40;99.90;;;;;;5115173;28;20240;-43
2023/12/23 02:02:30;;;;;;;3.83;1.53;;;7.40;99.90;;;;;;5115626;28;20651;-44
2023/12/23 02:04:56;;;;;;;7.10;1.80;;;7.40;99.90;;;;;;5114865;28;20429;-43
2023/12/23 02:07:21;;;;;;;3.20;1.60;;;7.40;99.90;;;;;;5115836;28;20475;-45
2023/12/23 02:09:47;;;;;;;3.60;1.70;;;7.40;99.90;;;;;;5114619;28;20425;-47
2023/12/23 02:12:34;;;;;;;9.30;2.33;;;7.40;99.90;;;;;;5113491;28;20180;-44
2023/12/23 02:15:10;;;;;;;3.70;1.37;;;7.40;99.90;;;;;;5115026;28;20163;-43
2023/12/23 02:17:37;;;;;;;3.37;2.00;;;7.50;99.90;;;;;;5096973;28;20420;-42
2023/12/23 02:20:03;;;;;;;4.60;1.50;;;7.40;99.90;;;;;;5114353;28;20428;-43
2023/12/23 02:22:29;;;;;;;2.30;1.50;;;7.40;99.90;;;;;;5113237;28;20433;-43
2023/12/23 02:24:55;;;;;;;4.93;1.60;;;7.40;99.90;;;;;;5114427;28;20573;-42
2023/12/23 02:27:30;;;;;;;2.60;1.40;;;7.40;99.90;;;;;;5115172;28;20251;-43
2023/12/23 02:29:56;;;;;;;4.67;1.23;;;7.30;99.90;;;;;;5116785;28;20175;-45
2023/12/23 02:32:22;;;;;;;4.43;1.70;;;7.50;1.00;;;;;;5116583;28;20409;-44
2023/12/23 02:34:48;;;;;;;5.03;1.47;;;7.80;1.00;;;;;;5116740;28;20434;-43
2023/12/23 02:37:13;;;;;;;3.30;1.50;;;7.80;1.00;;;;;;5116097;28;20427;-42
2023/12/23 02:39:39;;;;;;;3.77;1.10;;;7.70;99.90;;;;;;5118409;28;20172;-43
2023/12/23 02:42:05;;;;;;;4.40;1.30;;;7.50;99.90;;;;;;5120146;28;20244;-43
2023/12/23 02:44:30;;;;;;;4.10;1.17;;;7.30;1.00;;;;;;5117987;28;20207;-42
2023/12/23 02:46:56;;;;;;;4.17;1.20;;;7.10;1.00;;;;;;5120035;28;20289;-43
2023/12/23 02:49:21;;;;;;;4.13;1.30;;;7.10;1.00;;;;;;5119591;28;20636;-43
2023/12/23 02:51:47;;;;;;;2.77;1.10;;;7.00;1.00;;;;;;5119771;28;20525;-44
2023/12/23 02:54:12;;;;;;;4.23;1.57;;;7.00;1.00;;;;;;5119844;28;20204;-46
2023/12/23 02:56:38;;;;;;;2.33;1.40;;;7.10;1.00;;;;;;5119810;28;20180;-42
2023/12/23 02:59:04;;;;;;;3.03;1.30;;;7.00;1.00;;;;;;5102968;28;20196;-43
2023/12/23 03:01:29;;;;;;;3.57;1.37;;;7.00;1.00;;;;;;5119560;28;20184;-42
2023/12/23 03:03:55;;;;;;;3.40;1.70;;;7.10;1.00;;;;;;5120467;28;20210;-41
2023/12/23 03:06:20;;;;;;;5.20;1.47;;;7.00;1.00;;;;;;5120108;28;20186;-43
2023/12/23 03:08:46;;;;;;;2.87;1.37;;;7.10;1.00;;;;;;5119671;28;20168;-41
2023/12/23 03:11:11;;;;;;;5.27;1.50;;;7.10;99.90;;;;;;5101681;28;20179;-46
2023/12/23 03:13:37;;;;;;;5.87;2.10;;;7.10;99.90;;;;;;5119393;28;20562;-41
2023/12/23 03:16:13;;;;;;;4.73;1.67;;;7.20;99.90;;;;;;5119238;28;20549;-41
2023/12/23 03:18:38;;;;;;;1.73;1.30;;;7.20;99.90;;;;;;5119669;28;20179;-41
2023/12/23 03:21:04;;;;;;;3.10;1.90;;;7.20;99.90;;;;;;5119316;28;20429;-44
2023/12/23 03:23:29;;;;;;;2.03;1.20;;;7.20;99.90;;;;;;5119553;28;20195;-43
2023/12/23 03:25:55;;;;;;;4.80;1.47;;;7.20;99.90;;;;;;5119294;28;20186;-43
2023/12/23 03:28:20;;;;;;;4.50;1.40;;;7.30;99.90;;;;;;5119442;28;20511;-45
2023/12/23 03:30:46;;;;;;;6.90;1.30;;;7.20;99.90;;;;;;5119418;28;20214;-45
2023/12/23 03:33:15;;;;;;;3.30;1.60;;;7.20;99.90;;;;;;5118794;28;20179;-44
2023/12/23 03:35:41;;;;;;;6.27;2.70;;;7.20;99.90;;;;;;5101516;28;20183;-44
2023/12/23 03:38:07;;;;;;;2.60;1.10;;;7.20;99.90;;;;;;5118648;28;20441;-43
2023/12/23 03:40:32;;;;;;;2.27;1.00;;;7.30;99.90;;;;;;5116726;28;20755;-42
2023/12/23 03:42:58;;;;;;;1.67;1.20;;;7.30;99.90;;;;;;5118329;28;20200;-43
2023/12/23 03:45:23;;;;;;;3.50;1.10;;;7.30;99.90;;;;;;5099878;28;20272;-42
2023/12/23 03:47:50;;;;;;;1.20;1.00;;;7.20;99.90;;;;;;5116915;28;20277;-44
2023/12/23 03:50:15;;;;;;;3.00;1.00;;;7.30;99.90;;;;;;5117854;28;20489;-42
2023/12/23 03:52:41;;;;;;;4.23;1.73;;;7.20;99.90;;;;;;5118407;28;20425;-42
2023/12/23 03:55:07;;;;;;;4.30;1.40;;;7.20;99.90;;;;;;5117196;28;20180;-42
2023/12/23 03:57:33;;;;;;;2.47;1.00;;;7.30;99.90;;;;;;5117564;28;20566;-41
2023/12/23 03:59:58;;;;;;;1.50;1.00;;;7.30;99.90;;;;;;5117962;28;20500;-43
2023/12/23 04:02:24;;;;;;;5.40;1.60;;;7.30;99.90;;;;;;5118652;28;20203;-43
2023/12/23 04:04:49;;;;;;;2.50;1.10;;;7.20;99.90;;;;;;5117969;28;20238;-41
2023/12/23 04:07:15;;;;;;;2.97;1.63;;;7.30;60.00;;;;;;5116443;28;20176;-43
2023/12/23 04:09:40;;;;;;;3.90;1.30;;;7.30;24.80;;;;;;5118629;28;20545;-44
2023/12/23 04:12:06;;;;;;;2.20;1.27;;;7.30;22.50;;;;;;5118244;28;20191;-45
2023/12/23 04:14:34;;;;;;;1.77;1.13;;;7.30;15.70;;;;;;5115977;28;20465;-44
2023/12/23 04:17:00;;;;;;;2.00;0.97;;;7.20;8.30;;;;;;5117605;28;20186;-44
2023/12/23 04:19:25;;;;;;;2.37;1.60;;;7.30;1.00;;;;;;5117178;28;20455;-43
2023/12/23 04:21:51;;;;;;;4.80;1.57;;;7.20;15.50;;;;;;5117980;28;20449;-43
2023/12/23 04:24:19;;;;;;;2.90;0.90;;;7.30;3.80;;;;;;5117889;28;20237;-43
2023/12/23 04:26:44;;;;;;;2.80;1.10;;;7.30;1.00;;;;;;5115876;28;20164;-42
2023/12/23 04:29:11;;;;;;;3.77;1.40;;;7.30;1.00;;;;;;5117726;28;20490;-45
2023/12/23 04:31:36;;;;;;;2.73;1.00;;;7.20;1.00;;;;;;5117546;28;20168;-46
2023/12/23 04:34:02;;;;;;;5.30;1.40;;;7.30;1.00;;;;;;5118138;28;20425;-44
2023/12/23 04:36:28;;;;;;;1.80;0.90;;;7.30;1.00;;;;;;5117331;28;20187;-45
2023/12/23 04:38:53;;;;;;;2.97;1.50;;;7.30;1.00;;;;;;5116175;28;20172;-46
2023/12/23 04:41:19;;;;;;;1.30;0.87;;;7.30;1.00;;;;;;5115859;28;20622;-42
2023/12/23 04:43:45;;;;;;;3.83;1.10;;;7.30;99.90;;;;;;5116764;28;20552;-44
2023/12/23 04:46:10;;;;;;;3.10;1.20;;;7.30;99.90;;;;;;5115528;28;20244;-42
2023/12/23 04:48:36;;;;;;;3.03;0.97;;;7.30;99.90;;;;;;5116233;28;20862;-42
2023/12/23 04:51:01;;;;;;;2.43;0.80;;;7.30;99.90;;;;;;5116560;28;20530;-43
2023/12/23 04:53:27;;;;;;;2.37;1.00;;;7.30;99.40;;;;;;5115156;28;20171;-43
2023/12/23 04:55:53;;;;;;;3.17;1.00;;;7.40;1.00;;;;;;5116227;28;20175;-43
2023/12/23 04:58:18;;;;;;;2.80;0.83;;;7.40;1.00;;;;;;5115470;28;20436;-45
2023/12/23 05:00:44;;;;;;;2.30;0.80;;;7.40;99.90;;;;;;5116019;28;20245;-44
2023/12/23 05:03:09;;;;;;;2.33;0.80;;;7.50;99.90;;;;;;5116941;28;20215;-46
2023/12/23 05:05:35;;;;;;;1.90;0.60;;;7.40;99.90;;;;;;5117233;28;20175;-47
2023/12/23 05:08:01;;;;;;;2.07;0.90;;;7.40;99.90;;;;;;5117180;28;20214;-43
2023/12/23 05:10:26;;;;;;;2.87;1.00;;;7.50;99.90;;;;;;5116304;28;20183;-44
2023/12/23 05:12:52;;;;;;;1.00;0.73;;;7.40;1.00;;;;;;5116596;28;20538;-43
2023/12/23 05:15:17;;;;;;;2.57;0.77;;;7.40;1.00;;;;;;5117711;28;20183;-43
2023/12/23 05:17:43;;;;;;;1.23;0.53;;;7.40;1.00;;;;;;5117437;28;20533;-43
2023/12/23 05:20:10;;;;;;;0.90;0.70;;;7.40;56.10;;;;;;5117236;28;20183;-43
2023/12/23 05:22:36;;;;;;;1.63;0.60;;;7.40;99.90;;;;;;5117131;28;20184;-42
2023/12/23 05:25:02;;;;;;;3.50;0.93;;;7.30;99.90;;;;;;5117013;28;20870;-46
2023/12/23 05:27:28;;;;;;;1.40;0.60;;;7.40;99.90;;;;;;5115677;28;20212;-42
2023/12/23 05:29:55;;;;;;;1.00;0.50;;;7.40;99.90;;;;;;5113711;28;21782;-44
2023/12/23 05:32:21;;;;;;;1.20;0.53;;;7.40;99.90;;;;;;5115329;28;20175;-42
2023/12/23 05:34:46;;;;;;;1.77;0.60;;;7.30;1.00;;;;;;5115292;28;20532;-43
2023/12/23 05:37:12;;;;;;;1.10;0.40;;;7.30;1.00;;;;;;5114481;28;20179;-44
2023/12/23 05:39:38;;;;;;;1.30;0.33;;;7.30;1.00;;;;;;5114733;28;20263;-46
2023/12/23 05:42:04;;;;;;;1.33;0.33;;;7.20;1.00;;;;;;5114584;28;20444;-44
2023/12/23 05:44:30;;;;;;;0.93;0.40;;;7.20;1.00;;;;;;5115951;28;20540;-45
2023/12/23 05:46:56;;;;;;;0.73;0.30;;;7.10;1.00;;;;;;5116304;28;20196;-47
2023/12/23 05:49:22;;;;;;;2.30;0.40;;;7.10;1.00;;;;;;5116358;28;20504;-42
2023/12/23 05:51:47;;;;;;;0.60;0.30;;;7.10;16.60;;;;;;5116380;28;20248;-46
2023/12/23 05:54:13;;;;;;;1.30;0.50;;;7.10;29.90;;;;;;5116944;28;20184;-42
2023/12/23 05:56:39;;;;;;;0.70;0.30;;;7.00;99.90;;;;;;5116791;28;20503;-45
2023/12/23 05:59:04;;;;;;;1.90;0.40;;;7.00;99.90;;;;;;5115487;28;20453;-48
2023/12/23 06:01:30;;;;;;;0.77;0.40;;;7.00;99.90;;;;;;5114475;28;20267;-43
2023/12/23 06:03:55;;;;;;;0.80;0.40;;;7.00;99.90;;;;;;5113491;28;20244;-43
2023/12/23 06:06:21;;;;;;;0.80;0.50;;;7.00;99.90;;;;;;5113796;28;20407;-43
2023/12/23 06:08:48;;;;;;;0.80;0.40;;;7.00;99.90;;;;;;5115210;28;20179;-44
2023/12/23 06:11:15;;;;;;;0.90;0.40;;;6.90;99.90;;;;;;5096159;28;20172;-43
2023/12/23 06:13:40;;;;;;;0.73;0.40;;;6.90;99.90;;;;;;5117093;28;20427;-45
2023/12/23 06:16:06;;;;;;;1.10;0.50;;;6.90;99.90;;;;;;5118230;28;20520;-44
2023/12/23 06:18:33;;;;;;;1.10;0.30;;;6.90;99.90;;;;;;5118266;28;20554;-44
2023/12/23 06:20:58;;;;;;;1.10;0.40;;;6.90;99.90;;;;;;5117458;28;20511;-45
2023/12/23 06:23:24;;;;;;;1.00;0.50;;;7.00;99.90;;;;;;5119850;28;20551;-47
2023/12/23 06:25:50;;;;;;;0.70;0.30;;;6.90;99.90;;;;;;5120080;28;20234;-41
2023/12/23 06:28:15;;;;;;;0.70;0.30;;;6.90;99.90;;;;;;5118845;28;20183;-46
2023/12/23 06:30:42;;;;;;;0.80;0.40;;;7.00;99.90;;;;;;5117713;28;20188;-40
2023/12/23 06:33:07;;;;;;;1.03;0.63;;;7.00;99.90;;;;;;5115457;28;20190;-42
2023/12/23 06:35:33;;;;;;;3.00;0.40;;;7.00;99.90;;;;;;5118070;28;20410;-43
2023/12/23 06:37:58;;;;;;;1.20;0.60;;;7.00;99.90;;;;;;5119436;28;20164;-43
2023/12/23 06:40:24;;;;;;;0.70;0.40;;;7.00;99.90;;;;;;5119268;28;20191;-43
2023/12/23 06:42:51;;;;;;;0.90;0.40;;;7.00;99.90;;;;;;5117957;28;20252;-42
2023/12/23 06:45:17;;;;;;;2.63;0.57;;;6.90;99.90;;;;;;5117721;28;20188;-44
2023/12/23 06:47:42;;;;;;;1.93;0.60;;;6.90;99.90;;;;;;5117535;28;20416;-45
2023/12/23 06:50:08;;;;;;;1.00;0.40;;;6.90;99.90;;;;;;5118092;28;20527;-43
2023/12/23 06:52:34;;;;;;;0.80;0.33;;;6.90;99.90;;;;;;5117445;28;20292;-44
2023/12/23 06:54:59;;;;;;;0.90;0.53;;;6.90;99.90;;;;;;5117097;28;20508;-44
2023/12/23 06:57:25;;;;;;;0.70;0.50;;;6.90;99.90;;;;;;5117944;28;20371;-44
2023/12/23 06:59:50;;;;;;;2.40;2.20;;;7.00;99.90;;;;;;5118530;28;20190;-44
2023/12/23 07:02:16;;;;;;;2.13;0.70;;;7.00;99.90;;;;;;5119391;28;20168;-44
2023/12/23 07:04:42;;;;;;;1.30;0.80;;;6.90;99.90;;;;;;5118400;28;20516;-43
2023/12/23 07:07:07;;;;;;;2.57;0.50;;;6.90;99.90;;;;;;5118383;28;20350;-46
2023/12/23 07:09:33;;;;;;;0.93;0.53;;;6.90;99.90;;;;;;5117764;28;20421;-45
2023/12/23 07:11:58;;;;;;;1.53;0.60;;;6.90;99.90;;;;;;5118051;28;20347;-42
2023/12/23 07:14:24;;;;;;;0.80;0.50;;;6.90;99.90;;;;;;5117681;28;20182;-44
2023/12/23 07:16:50;;;;;;;0.80;0.47;;;6.90;1.00;;;;;;5117647;28;20187;-45
2023/12/23 07:19:16;;;;;;;1.13;0.80;;;6.80;1.00;;;;;;5118806;28;20441;-44
2023/12/23 07:21:41;;;;;;;1.20;0.60;;;6.80;1.00;;;;;;5118083;28;20643;-42
2023/12/23 07:24:07;;;;;;;1.07;0.53;;;6.80;1.00;;;;;;5116381;28;20504;-45
2023/12/23 07:26:35;;;;;;;0.80;0.50;;;6.80;1.00;;;;;;5117903;28;20180;-45
2023/12/23 07:29:03;;;;;;;2.30;0.57;;;6.80;99.90;;;;;;5118349;28;20332;-46
2023/12/23 07:31:32;;;;;;;1.63;0.50;;;6.80;1.00;;;;;;5116199;28;20494;-42
2023/12/23 07:33:58;;;;;;;1.80;0.60;;;6.80;1.00;;;;;;5114972;28;20435;-42
2023/12/23 07:36:24;;;;;;;0.90;0.60;;;6.80;1.00;;;;;;5116006;28;20869;-45
2023/12/23 07:38:49;;;;;;;1.57;0.60;;;6.80;1.00;;;;;;5115987;28;20405;-43
2023/12/23 07:41:15;;;;;;;0.90;0.70;;;6.80;1.00;;;;;;5114364;28;20450;-45
2023/12/23 07:43:40;;;;;;;2.50;0.63;;;6.80;1.00;;;;;;5115811;28;20310;-42
2023/12/23 07:46:06;;;;;;;1.10;0.63;;;6.80;1.00;;;;;;5117128;28;20570;-45
2023/12/23 07:48:32;;;;;;;1.10;0.70;;;6.70;1.00;;;;;;5115271;28;20606;-42
2023/12/23 07:50:57;;;;;;;0.80;0.50;;;6.70;1.00;;;;;;5115988;28;20172;-44
2023/12/23 07:53:23;;;;;;;1.00;0.50;;;6.80;1.00;;;;;;5116250;28;20475;-44
2023/12/23 07:55:48;;;;;;;2.60;0.50;;;6.80;1.00;;;;;;5114078;28;20179;-41
2023/12/23 07:58:14;;;;;;;0.97;0.50;;;6.70;1.00;;;;;;5116167;28;20609;-44
2023/12/23 08:00:39;;;;;;;2.17;1.10;;;6.80;1.00;;;;;;5117149;28;20270;-43
2023/12/23 08:03:05;;;;;;;1.33;0.60;;;6.70;1.00;;;;;;5117399;28;20371;-41
2023/12/23 08:05:33;;;;;;;1.07;0.50;;;6.70;1.00;;;;;;5116440;28;20454;-42
2023/12/23 08:07:58;;;;;;;1.43;0.80;;;6.70;1.00;;;;;;5115907;28;20381;-42
2023/12/23 08:10:24;;;;;;;2.27;0.60;;;6.80;1.00;;;;;;5116747;28;20481;-45
2023/12/23 08:12:49;;;;;;;1.10;0.57;;;6.80;1.00;;;;;;5115873;28;20167;-44
2023/12/23 08:15:15;;;;;;;1.97;0.60;;;6.80;1.00;;;;;;5116047;28;20445;-44
2023/12/23 08:17:40;;;;;;;0.87;0.50;;;6.90;1.00;;;;;;5115459;28;20175;-43
2023/12/23 08:20:06;;;;;;;0.80;0.43;;;6.80;99.90;;;;;;5116031;28;20183;-46
2023/12/23 08:22:33;;;;;;;1.10;0.43;;;6.90;99.90;;;;;;5115410;28;20184;-42
2023/12/23 08:24:59;;;;;;;1.03;0.40;;;6.90;99.90;;;;;;5114506;28;20484;-42
2023/12/23 08:27:24;;;;;;;0.80;0.47;;;6.90;99.90;;;;;;5114417;28;20422;-42
2023/12/23 08:29:50;;;;;;;1.33;0.67;;;6.90;99.90;;;;;;5114813;28;20172;-46
2023/12/23 08:32:15;;;;;;;0.80;0.40;;;6.90;99.90;;;;;;5115666;28;20242;-43
2023/12/23 08:34:45;;;;;;;1.10;0.70;;;6.90;99.90;;;;;;5115928;28;20589;-42
2023/12/23 08:37:11;;;;;;;1.90;1.80;;;7.00;99.90;;;;;;5115905;28;20180;-42
2023/12/23 08:39:37;;;;;;;0.90;0.70;;;7.00;99.90;;;;;;5116263;28;20831;-42
2023/12/23 08:42:02;;;;;;;1.67;0.53;;;7.00;99.90;;;;;;5116481;28;20172;-41
2023/12/23 08:44:28;;;;;;;1.00;0.70;;;7.00;99.90;;;;;;5115968;28;20199;-43
2023/12/23 08:46:53;;;;;;;1.27;0.60;;;7.10;99.90;;;;;;5117081;28;20481;-42
2023/12/23 08:49:19;;;;;;;0.60;0.30;;;7.10;99.90;;;;;;5115958;28;20242;-42
2023/12/23 08:51:44;;;;;;;2.13;0.43;;;7.10;99.90;;;;;;5116092;28;20187;-42
2023/12/23 08:54:10;;;;;;;2.00;0.60;;;7.10;99.90;;;;;;5116691;28;20537;-43
2023/12/23 08:56:35;;;;;;;1.73;0.40;;;7.20;99.90;;;;;;5115335;28;20257;-43
2023/12/23 08:59:01;;;;;;;1.77;0.60;;;7.20;48.60;;;;;;5115238;28;20190;-42
2023/12/23 09:01:26;;;;;;;0.80;0.40;;;7.20;59.00;;;;;;5112519;28;20325;-42
2023/12/23 09:03:52;;;;;;;1.83;0.67;;;7.30;1.00;;;;;;5113893;28;20290;-42
2023/12/23 09:06:18;;;;;;;1.30;0.50;;;7.30;1.00;;;;;;5112890;28;20298;-44
2023/12/23 09:08:44;;;;;;;0.70;0.40;;;7.30;1.00;;;;;;5113489;28;20732;-41
2023/12/23 09:11:09;;;;;;;1.33;0.40;;;7.30;1.00;;;;;;5114643;28;20182;-42
2023/12/23 09:13:36;;;;;;;0.90;0.53;;;7.30;1.00;;;;;;5115485;28;20211;-43
2023/12/23 09:16:04;;;;;;;0.80;0.40;;;7.40;1.00;;;;;;5114348;28;20194;-43
2023/12/23 09:18:31;;;;;;;1.53;0.87;;;7.40;1.00;;;;;;5114381;28;20440;-44
2023/12/23 09:20:57;;;;;;;1.77;1.07;;;7.40;1.00;;;;;;5114416;28;20521;-43
2023/12/23 09:23:22;;;;;;;1.00;0.70;;;7.50;1.00;;;;;;5112730;28;20555;-46
2023/12/23 09:25:48;;;;;;;0.70;0.40;;;7.50;99.90;;;;;;5112856;28;20175;-43
2023/12/23 09:28:14;;;;;;;1.00;0.70;;;7.60;99.90;;;;;;5113373;28;20187;-43
2023/12/23 09:30:39;;;;;;;0.83;0.57;;;7.60;99.90;;;;;;5114448;28;20200;-42
2023/12/23 09:33:05;;;;;;;0.90;0.50;;;7.60;99.90;;;;;;5114618;28;20180;-42
2023/12/23 09:35:31;;;;;;;0.80;0.40;;;7.60;99.90;;;;;;5115273;28;20168;-45
2023/12/23 09:37:58;;;;;;;1.00;0.60;;;7.70;99.90;;;;;;5115391;28;20548;-42
2023/12/23 09:40:23;;;;;;;0.70;0.33;;;7.60;99.90;;;;;;5114449;28;20437;-46
2023/12/23 09:42:50;;;;;;;0.90;0.50;;;7.50;99.90;;;;;;5114190;28;20731;-43
2023/12/23 09:45:16;;;;;;;0.90;0.60;;;7.50;99.90;;;;;;5114218;28;20515;-43
2023/12/23 09:47:42;;;;;;;1.17;0.60;;;7.50;99.90;;;;;;5113616;28;20444;-41
2023/12/23 09:50:08;;;;;;;0.90;0.40;;;7.50;99.90;;;;;;5118514;28;20530;-43
2023/12/23 09:52:34;;;;;;;0.70;0.37;;;7.50;99.90;;;;;;5117835;28;20183;-44
2023/12/23 09:55:06;;;;;;;0.90;0.60;;;7.50;99.90;;;;;;5116934;28;20675;-42
2023/12/23 09:57:32;;;;;;;1.30;0.30;;;7.50;99.90;;;;;;5116235;28;20556;-43
2023/12/23 09:59:58;;;;;;;0.70;0.30;;;7.50;99.90;;;;;;5114402;28;20512;-42
2023/12/23 10:02:23;;;;;;;0.90;0.50;;;7.50;99.90;;;;;;5114788;28;20874;-42
2023/12/23 10:04:49;;;;;;;0.70;0.30;;;7.50;99.90;;;;;;5115738;28;20588;-42
2023/12/23 10:07:15;;;;;;;0.70;0.30;;;7.50;99.90;;;;;;5115713;28;20180;-44
2023/12/23 10:09:41;;;;;;;0.73;0.40;;;7.50;99.90;;;;;;5117763;28;20421;-41
2023/12/23 10:12:07;;;;;;;0.90;0.57;;;7.50;99.90;;;;;;5097508;28;20175;-43
2023/12/23 10:14:33;;;;;;;1.00;0.50;;;7.50;99.90;;;;;;5115927;27;20684;-42
2023/12/23 10:16:58;;;;;;;1.43;0.53;;;7.50;99.90;;;;;;5116793;28;20433;-42
2023/12/23 10:19:24;;;;;;;0.90;0.60;;;7.50;99.90;;;;;;5117806;28;20184;-42
2023/12/23 10:21:50;;;;;;;0.77;0.50;;;7.50;99.90;;;;;;5117959;28;20180;-42
2023/12/23 10:24:16;;;;;;;0.90;0.40;;;7.50;99.90;;;;;;5118369;28;20484;-43
2023/12/23 10:26:42;;;;;;;2.37;0.57;;;7.60;99.90;;;;;;5115093;28;20470;-43
2023/12/23 10:29:10;;;;;;;0.80;0.50;;;7.60;99.90;;;;;;5115973;28;20208;-42
2023/12/23 10:31:36;;;;;;;0.70;0.50;;;7.60;99.90;;;;;;5117229;28;20482;-45
2023/12/23 10:34:11;;;;;;;0.87;0.50;;;7.60;99.90;;;;;;5117576;28;20485;-48
2023/12/23 10:36:38;;;;;;;2.00;0.60;;;7.90;99.90;;;;;;5118713;28;20439;-47
2023/12/23 10:39:10;;;;;;;0.83;0.50;;;7.90;1.00;;;;;;5118758;28;20437;-45
2023/12/23 10:41:56;;;;;;;1.00;0.50;;;8.00;1.00;;;;;;5119136;28;20401;-45
2023/12/23 10:44:22;;;;;;;0.80;0.40;;;7.90;99.90;;;;;;5118912;28;20469;-44
2023/12/23 10:46:50;;;;;;;0.80;0.40;;;7.70;99.90;;;;;;5117750;28;20421;-41
2023/12/23 10:49:16;;;;;;;1.10;0.60;;;7.60;99.90;;;;;;5117920;28;20495;-42
2023/12/23 10:51:42;;;;;;;1.50;0.60;;;7.60;99.90;;;;;;5119233;28;20434;-42
2023/12/23 10:54:11;;;;;;;7.57;4.20;;;7.50;1.00;;;;;;5117866;28;20483;-43
2023/12/23 10:56:37;;;;;;;1.60;0.70;;;7.50;1.00;;;;;;5117388;28;20442;-43
2023/12/23 10:59:03;;;;;;;1.53;0.80;;;7.50;1.00;;;;;;5113465;28;20616;-41
2023/12/23 11:01:32;;;;;;;4.77;2.37;;;7.40;1.00;;;;;;5114676;28;20522;-41
2023/12/23 11:04:02;;;;;;;16.73;9.63;;;7.40;1.00;;;;;;5116116;28;20219;-41
2023/12/23 11:06:34;;;;;;;1.87;1.17;;;7.30;1.00;;;;;;5116032;28;20543;-41
2023/12/23 11:09:00;;;;;;;2.33;1.37;;;7.40;1.00;;;;;;5116826;28;20520;-41
2023/12/23 11:11:26;;;;;;;1.77;0.97;;;7.30;1.00;;;;;;5116462;28;20480;-42
2023/12/23 11:13:52;;;;;;;3.53;1.23;;;7.30;1.00;;;;;;5116698;28;20467;-45
2023/12/23 11:16:19;;;;;;;3.50;2.73;;;7.40;1.00;;;;;;5115827;28;20427;-44
2023/12/23 11:18:44;;;;;;;1.20;0.90;;;7.40;1.00;;;;;;5114503;28;20429;-44
2023/12/23 11:21:17;;;;;;;1.20;0.80;;;7.40;1.00;;;;;;5114162;28;20427;-44
2023/12/23 11:23:43;;;;;;;1.20;0.60;;;7.40;1.00;;;;;;5112892;28;20310;-43
2023/12/23 11:26:34;;;;;;;1.07;0.67;;;7.40;1.00;;;;;;5114972;28;20512;-42
2023/12/23 11:29:03;;;;;;;1.57;1.03;;;7.40;1.00;;;;;;5106915;28;20708;-43
2023/12/23 11:31:29;;;;;;;0.77;0.40;;;7.40;1.00;;;;;;5115420;28;20421;-42
2023/12/23 11:33:55;;;;;;;1.37;0.87;;;7.40;1.00;;;;;;5115258;28;20692;-42
2023/12/23 11:36:20;;;;;;;1.00;0.67;;;7.50;1.00;;;;;;5115487;28;20573;-42
2023/12/23 11:38:50;;;;;;;1.10;0.60;;;7.50;1.00;;;;;;5115781;28;20180;-42
2023/12/23 11:41:17;;;;;;;0.70;0.40;;;7.50;99.90;;;;;;5115285;28;20359;-43
2023/12/23 11:43:47;;;;;;;1.00;0.73;;;7.50;99.90;;;;;;5114748;28;20652;-43
2023/12/23 11:46:14;;;;;;;0.70;0.40;;;7.60;99.90;;;;;;5113552;28;20480;-42
2023/12/23 11:48:39;;;;;;;1.17;0.57;;;7.50;99.90;;;;;;5111482;28;20418;-41
2023/12/23 11:51:08;;;;;;;1.00;0.30;;;7.50;99.90;;;;;;5113885;28;20530;-43
2023/12/23 11:53:33;;;;;;;0.70;0.30;;;7.50;99.90;;;;;;5113659;28;20481;-43
2023/12/23 11:56:00;;;;;;;0.60;0.30;;;7.50;99.90;;;;;;5114563;28;20703;-43
2023/12/23 11:58:26;;;;;;;0.93;0.47;;;7.50;99.90;;;;;;5113389;28;20263;-44
2023/12/23 12:00:53;;;;;;;0.90;0.40;;;7.60;99.90;;;;;;5113345;28;20583;-41
2023/12/23 12:03:18;;;;;;;0.70;0.40;;;7.70;99.90;;;;;;5112858;28;20450;-42
2023/12/23 12:05:44;;;;;;;1.23;0.40;;;7.60;99.90;;;;;;5112608;28;20426;-43
2023/12/23 12:08:09;;;;;;;0.80;0.43;;;7.70;1.00;;;;;;5113827;28;20182;-44
2023/12/23 12:10:35;;;;;;;0.80;0.43;;;7.80;1.00;;;;;;5116132;28;20210;-41
2023/12/23 12:13:01;;;;;;;1.07;0.60;;;7.80;1.00;;;;;;5115767;28;20175;-43
2023/12/23 12:15:27;;;;;;;0.83;0.40;;;7.90;99.90;;;;;;5115183;28;20174;-46
2023/12/23 12:17:52;;;;;;;0.70;0.30;;;7.90;99.90;;;;;;5114994;28;20428;-43
2023/12/23 12:20:19;;;;;;;1.03;0.50;;;7.80;99.90;;;;;;5116648;28;20180;-43
2023/12/23 12:22:45;;;;;;;0.70;0.40;;;7.90;99.90;;;;;;5097675;28;20179;-42
2023/12/23 12:25:11;;;;;;;0.80;0.40;;;7.90;99.90;;;;;;5114267;28;20437;-44
2023/12/23 12:27:38;;;;;;;0.97;0.50;;;7.90;99.90;;;;;;5115757;28;20405;-43
2023/12/23 12:30:07;;;;;;;1.00;0.53;;;7.90;99.90;;;;;;5115123;28;20679;-46
2023/12/23 12:32:32;;;;;;;1.00;0.50;;;7.90;99.90;;;;;;5095575;28;20436;-45
2023/12/23 12:35:03;;;;;;;0.90;0.50;;;8.00;1.00;;;;;;5112768;28;20425;-41
2023/12/23 12:37:29;;;;;;;0.83;0.40;;;8.30;99.90;;;;;;5112774;28;20279;-45
2023/12/23 12:39:55;;;;;;;0.70;0.40;;;8.40;99.90;;;;;;5115260;28;20506;-43
2023/12/23 12:42:21;;;;;;;0.70;0.33;;;8.30;99.90;;;;;;5098902;28;20172;-43
2023/12/23 12:44:47;;;;;;;0.73;0.50;;;8.30;99.90;;;;;;5114796;28;20926;-45
2023/12/23 12:47:13;;;;;;;1.00;0.50;;;8.20;99.90;;;;;;5113420;28;20429;-42
2023/12/23 12:49:48;;;;;;;0.77;0.50;;;8.20;90.00;;;;;;5113921;28;20462;-44
2023/12/23 12:52:13;;;;;;;1.30;0.60;;;8.30;99.90;;;;;;5094780;28;20771;-44
2023/12/23 12:54:42;;;;;;;0.73;0.37;;;8.30;1.00;;;;;;5114219;28;20405;-46